Time;durP1;ratioP1;P1;durP2;ratioP2;P2;SDS_P1;SDS_P2;PMS_P1;PMS_P2;Temp;Humidity;BMP_temperature;BMP_pressure;BME280_temperature;BME280_humidity;BME280_pressure;Samples;Min_cycle;Max_cycle;Signal;HPM_P1;HPM_P2
2022/06/26 00:01:15;;;;;;;8.27;5.40;;;;;;;22.14;78.42;99241.66;5110873;28;20043;-80
2022/06/26 00:03:41;;;;;;;13.50;5.15;;;;;;;22.16;77.92;99254.25;5111812;28;20042;-81
2022/06/26 00:06:07;;;;;;;11.40;4.20;;;;;;;22.10;78.41;99250.22;5112692;28;20019;-82
2022/06/26 00:08:32;;;;;;;9.35;5.45;;;;;;;22.15;78.44;99257.50;5112644;28;20062;-81
2022/06/26 00:10:58;;;;;;;9.68;4.63;;;;;;;21.70;80.30;99259.03;5106275;28;20077;-80
2022/06/26 00:13:23;;;;;;;12.35;5.22;;;;;;;21.82;81.08;99256.94;5092075;28;20035;-81
2022/06/26 00:15:49;;;;;;;12.30;4.72;;;;;;;22.04;80.40;99271.00;5092058;28;20059;-80
2022/06/26 00:18:15;;;;;;;20.25;5.32;;;;;;;22.08;79.47;99260.41;5092291;28;20052;-80
2022/06/26 00:20:40;;;;;;;9.13;4.85;;;;;;;22.23;79.44;99258.25;5094477;28;20059;-80
2022/06/26 00:23:06;;;;;;;10.43;5.03;;;;;;;21.78;81.13;99264.69;5111656;28;20031;-80
2022/06/26 00:25:32;;;;;;;19.10;6.68;;;;;;;21.15;83.05;99257.69;5112104;28;20172;-80
2022/06/26 00:27:58;;;;;;;12.45;6.15;;;;;;;20.90;84.87;99265.09;5111932;28;20481;-80
2022/06/26 00:30:23;;;;;;;10.90;5.68;;;;;;;21.06;85.83;99268.69;5111462;28;20453;-80
2022/06/26 00:32:49;;;;;;;14.88;7.15;;;;;;;20.93;85.22;99271.97;5091684;28;20036;-80
2022/06/26 00:35:15;;;;;;;12.57;6.10;;;;;;;20.47;86.56;99268.81;5091319;28;20438;-79
2022/06/26 00:37:41;;;;;;;14.00;6.40;;;;;;;20.19;87.92;99264.75;5073996;28;20067;-80
2022/06/26 00:40:08;;;;;;;11.77;5.85;;;;;;;20.43;89.78;99278.56;5091604;28;20712;-80
2022/06/26 00:42:34;;;;;;;9.55;6.68;;;;;;;20.30;89.96;99278.16;5108931;28;20082;-80
2022/06/26 00:45:00;;;;;;;16.15;6.60;;;;;;;19.98;90.50;99268.41;5093906;28;20058;-80
2022/06/26 00:47:25;;;;;;;16.17;6.78;;;;;;;20.09;92.00;99273.28;5094078;28;20059;-80
2022/06/26 00:49:51;;;;;;;13.23;7.40;;;;;;;20.19;91.99;99272.50;5112172;28;20367;-80
2022/06/26 00:52:21;;;;;;;12.48;6.28;;;;;;;20.10;92.10;99280.59;5111033;28;20148;-80
2022/06/26 00:54:48;;;;;;;18.35;7.47;;;;;;;19.91;93.39;99268.41;5110973;28;20106;-81
2022/06/26 00:57:13;;;;;;;14.50;7.22;;;;;;;19.89;93.11;99276.47;5093528;28;20131;-80
2022/06/26 00:59:39;;;;;;;13.50;7.50;;;;;;;19.73;93.65;99269.16;5093456;28;20114;-81
2022/06/26 01:02:05;;;;;;;12.88;7.60;;;;;;;19.69;94.71;99273.22;5091183;28;20024;-80
2022/06/26 01:04:30;;;;;;;16.15;8.10;;;;;;;19.68;95.19;99266.75;5091708;28;20445;-82
2022/06/26 01:06:56;;;;;;;11.50;7.22;;;;;;;19.56;94.88;99276.44;5073332;28;20401;-80
2022/06/26 01:09:22;;;;;;;12.63;7.68;;;;;;;19.71;94.94;99273.63;5073405;28;20085;-81
2022/06/26 01:11:47;;;;;;;9.45;6.25;;;;;;;19.70;93.90;99257.81;5083933;28;20031;-81
2022/06/26 01:14:13;;;;;;;11.48;6.70;;;;;;;19.71;93.30;99271.59;5093567;28;20116;-80
2022/06/26 01:16:39;;;;;;;13.48;7.70;;;;;;;19.75;94.53;99272.41;5093444;28;20134;-80
2022/06/26 01:19:07;;;;;;;15.35;7.82;;;;;;;19.79;94.64;99266.75;5111860;28;20020;-80
2022/06/26 01:21:33;;;;;;;15.48;7.93;;;;;;;19.73;93.83;99274.03;5110324;28;20028;-80
2022/06/26 01:23:59;;;;;;;13.75;7.60;;;;;;;19.69;94.31;99278.88;5093702;28;20362;-80
2022/06/26 01:26:26;;;;;;;12.45;7.22;;;;;;;19.66;94.58;99285.38;5111532;28;20081;-80
2022/06/26 01:28:51;;;;;;;10.50;7.40;;;;;;;19.59;95.28;99280.50;5111514;28;20102;-80
2022/06/26 01:31:19;;;;;;;15.77;7.65;;;;;;;19.57;96.10;99283.72;5110757;28;20015;-81
2022/06/26 01:33:47;;;;;;;13.98;7.90;;;;;;;19.58;94.43;99290.22;5111567;28;20088;-79
2022/06/26 01:36:13;;;;;;;18.15;7.57;;;;;;;19.59;95.18;99291.84;5111357;28;20048;-80
2022/06/26 01:38:39;;;;;;;12.50;6.85;;;;;;;19.54;95.29;99273.19;5112166;28;20038;-80
2022/06/26 01:41:04;;;;;;;16.17;7.72;;;;;;;19.56;95.10;99275.63;5114489;28;20565;-80
2022/06/26 01:43:33;;;;;;;31.30;8.35;;;;;;;19.71;95.58;99287.81;5096811;28;20420;-81
2022/06/26 01:46:00;;;;;;;14.00;7.43;;;;;;;19.75;95.46;99280.13;5115244;28;20020;-80
2022/06/26 01:48:27;;;;;;;16.17;8.07;;;;;;;19.76;95.78;99290.25;5096655;28;20122;-80
2022/06/26 01:50:55;;;;;;;16.40;7.88;;;;;;;19.72;95.17;99287.41;5114270;28;20031;-80
2022/06/26 01:53:20;;;;;;;14.82;8.18;;;;;;;19.77;95.05;99297.56;5096705;28;20016;-79
2022/06/26 01:55:46;;;;;;;15.63;7.93;;;;;;;19.73;94.92;99286.19;5115139;28;20522;-81
2022/06/26 01:58:13;;;;;;;17.83;8.43;;;;;;;19.84;95.33;99293.91;5114717;28;20058;-81
2022/06/26 02:00:41;;;;;;;30.63;8.93;;;;;;;20.02;94.48;99305.31;5114673;28;20030;-80
2022/06/26 02:03:08;;;;;;;12.90;7.78;;;;;;;20.01;93.89;99295.19;5106715;28;20428;-81
2022/06/26 02:05:33;;;;;;;13.10;7.45;;;;;;;20.25;93.63;99310.59;5096457;28;20426;-81
2022/06/26 02:07:59;;;;;;;15.77;8.60;;;;;;;20.40;92.64;99305.75;5096482;28;20024;-81
2022/06/26 02:15:56;;;;;;;14.00;7.93;;;;;;;20.70;89.50;99310.19;5094498;28;20061;-81
2022/06/26 02:18:21;;;;;;;10.77;7.15;;;;;;;20.67;90.53;99330.88;5094143;28;20027;-81
2022/06/26 02:20:48;;;;;;;13.38;6.97;;;;;;;20.59;89.98;99312.22;5075589;28;20024;-81
2022/06/26 02:23:14;;;;;;;15.55;8.05;;;;;;;20.41;90.09;99323.59;5075864;28;20028;-81
2022/06/26 02:25:40;;;;;;;12.82;7.30;;;;;;;20.33;91.02;99328.44;5094055;28;20475;-80
2022/06/26 02:28:06;;;;;;;12.52;7.18;;;;;;;20.09;91.16;99313.88;5094158;28;20036;-81
2022/06/26 02:30:32;;;;;;;15.23;8.55;;;;;;;20.23;91.34;99320.75;5094268;28;20035;-81
2022/06/26 02:32:58;;;;;;;11.65;7.60;;;;;;;20.30;91.49;99335.78;5112604;28;20031;-81
2022/06/26 02:35:25;;;;;;;17.00;8.88;;;;;;;20.15;91.80;99320.75;5114078;28;20172;-81
2022/06/26 02:37:52;;;;;;;16.63;8.05;;;;;;;20.09;92.00;99324.41;5096021;28;20081;-81
2022/06/26 02:40:20;;;;;;;19.13;8.52;;;;;;;19.89;94.15;99328.41;5113513;28;20019;-81
2022/06/26 02:42:46;;;;;;;17.95;8.45;;;;;;;19.82;94.09;99331.19;5094813;28;20235;-81
2022/06/26 02:45:12;;;;;;;21.50;9.38;;;;;;;19.86;94.29;99339.72;5114019;28;20036;-82
2022/06/26 02:47:38;;;;;;;14.15;8.00;;;;;;;19.70;94.70;99328.75;5113992;28;20098;-82
2022/06/26 02:50:04;;;;;;;23.30;8.85;;;;;;;19.69;95.88;99338.47;5113504;28;20031;-81
2022/06/26 02:52:30;;;;;;;17.40;8.90;;;;;;;19.70;95.69;99338.06;5094197;28;20493;-82
2022/06/26 02:54:56;;;;;;;15.15;9.68;;;;;;;19.91;96.38;99339.34;5109395;28;20028;-82
2022/06/26 02:57:21;;;;;;;22.33;9.88;;;;;;;19.80;95.95;99335.69;5093476;28;20500;-82
2022/06/26 02:59:47;;;;;;;19.42;8.27;;;;;;;20.04;95.71;99336.97;5093378;28;20028;-82
2022/06/26 03:02:12;;;;;;;23.15;8.60;;;;;;;19.95;94.62;99342.22;5088084;28;20111;-81
2022/06/26 03:04:38;;;;;;;23.63;9.27;;;;;;;19.94;96.33;99340.59;5113610;28;20028;-82
2022/06/26 03:07:04;;;;;;;17.90;10.00;;;;;;;20.14;95.40;99341.00;5095374;28;20024;-81
2022/06/26 03:09:29;;;;;;;16.15;9.15;;;;;;;20.28;94.86;99341.06;5113761;28;20023;-82
2022/06/26 03:11:55;;;;;;;27.92;9.18;;;;;;;20.27;94.94;99352.81;5101676;28;20032;-82
2022/06/26 03:14:21;;;;;;;21.25;11.20;;;;;;;20.41;94.67;99352.00;5103023;28;20031;-82
2022/06/26 03:16:46;;;;;;;16.25;9.25;;;;;;;20.43;94.96;99343.88;5113035;28;20386;-82
2022/06/26 03:19:12;;;;;;;22.60;10.75;;;;;;;20.32;95.61;99341.03;5113584;28;20443;-82
2022/06/26 03:21:38;;;;;;;14.00;10.40;;;;;;;20.17;95.96;99332.50;5094555;28;20027;-82
2022/06/26 03:24:03;;;;;;;20.85;10.48;;;;;;;20.02;98.09;99314.63;5092747;28;20041;-81
2022/06/26 03:26:34;;;;;;;15.60;11.43;;;;;;;19.97;98.78;99308.56;5095145;28;20465;-82
2022/06/26 03:29:02;;;;;;;17.42;11.90;;;;;;;19.89;99.14;99304.84;5113400;28;20092;-82
2022/06/26 03:31:28;;;;;;;14.68;11.23;;;;;;;19.84;99.69;99308.91;5093992;28;20040;-82
2022/06/26 03:33:55;;;;;;;16.70;11.77;;;;;;;19.76;100.00;99316.59;5113151;28;20030;-82
2022/06/26 03:36:22;;;;;;;18.30;11.48;;;;;;;19.89;100.00;99325.56;5094687;28;20040;-83
2022/06/26 03:38:47;;;;;;;15.48;11.85;;;;;;;19.86;99.51;99317.03;5111987;28;20027;-82
2022/06/26 03:41:13;;;;;;;26.02;13.07;;;;;;;20.06;98.53;99324.00;5112178;28;20351;-83
2022/06/26 03:43:38;;;;;;;20.70;12.35;;;;;;;20.17;97.38;99323.19;5102056;28;20024;-81
2022/06/26 03:46:04;;;;;;;17.88;11.60;;;;;;;20.29;96.48;99325.63;5095081;28;20532;-83
2022/06/26 03:48:30;;;;;;;20.83;11.52;;;;;;;20.37;95.43;99334.13;5094967;28;20386;-79
2022/06/26 03:50:56;;;;;;;18.50;11.25;;;;;;;20.43;94.90;99332.53;5085818;28;20038;-81
2022/06/26 03:53:23;;;;;;;28.85;11.45;;;;;;;20.31;94.23;99328.88;5112547;28;20099;-77
2022/06/26 03:55:49;;;;;;;14.20;10.75;;;;;;;20.36;94.33;99338.19;5075762;28;20032;-84
2022/06/26 03:58:15;;;;;;;14.05;10.85;;;;;;;20.39;93.37;99334.53;5092488;28;20024;-80
2022/06/26 04:00:40;;;;;;;17.95;10.48;;;;;;;20.34;93.25;99322.38;5093293;28;20023;-77
2022/06/26 04:03:07;;;;;;;14.93;8.18;;;;;;;20.34;92.65;99330.91;5087303;28;20038;-79
2022/06/26 04:05:34;;;;;;;14.55;8.20;;;;;;;20.42;91.82;99319.53;5092025;28;20461;-78
2022/06/26 04:08:00;;;;;;;13.52;7.68;;;;;;;20.49;91.69;99319.53;5093881;28;20399;-84
2022/06/26 04:10:26;;;;;;;15.65;8.25;;;;;;;20.60;91.51;99313.84;5093929;28;20115;-85
2022/06/26 04:12:52;;;;;;;17.23;7.78;;;;;;;20.70;90.84;99323.56;5094702;28;20107;-83
2022/06/26 04:15:18;;;;;;;16.85;8.77;;;;;;;20.59;90.43;99317.91;5073955;28;20116;-83
2022/06/26 04:17:44;;;;;;;15.77;8.43;;;;;;;20.55;90.71;99334.13;5073771;28;20111;-83
2022/06/26 04:20:10;;;;;;;17.42;6.93;;;;;;;20.55;89.44;99325.63;5073109;28;20119;-83
2022/06/26 04:22:36;;;;;;;19.25;7.78;;;;;;;20.62;89.26;99315.03;5110609;28;20059;-84
2022/06/26 04:25:03;;;;;;;10.50;6.82;;;;;;;20.74;88.86;99310.16;5111487;28;20047;-84
2022/06/26 04:27:28;;;;;;;13.13;7.75;;;;;;;20.79;88.14;99306.09;5112231;28;20457;-84
2022/06/26 04:29:54;;;;;;;14.05;7.53;;;;;;;20.93;87.36;99302.44;5112291;28;20043;-84
2022/06/26 04:32:19;;;;;;;11.10;6.25;;;;;;;21.01;86.53;99301.22;5110538;28;20575;-82
2022/06/26 04:34:45;;;;;;;19.63;7.55;;;;;;;20.96;86.51;99313.81;5110853;28;20475;-83
2022/06/26 04:37:10;;;;;;;11.65;7.35;;;;;;;20.92;86.79;99300.81;5111073;28;20084;-82
2022/06/26 04:39:36;;;;;;;10.38;6.47;;;;;;;20.92;86.97;99300.81;5092269;28;20401;-83
2022/06/26 04:42:01;;;;;;;13.25;6.82;;;;;;;20.73;86.78;99317.06;5110090;28;20077;-83
2022/06/26 04:44:27;;;;;;;12.13;7.07;;;;;;;20.70;87.16;99321.56;5110815;28;20102;-83
2022/06/26 04:46:53;;;;;;;17.20;7.30;;;;;;;20.62;88.24;99329.25;5092690;28;20047;-83
2022/06/26 04:49:20;;;;;;;12.65;6.68;;;;;;;20.73;89.23;99332.09;5112074;28;20478;-83
2022/06/26 04:51:45;;;;;;;11.65;8.38;;;;;;;20.68;88.89;99329.66;5093304;28;20034;-84
2022/06/26 04:54:11;;;;;;;14.45;7.65;;;;;;;20.77;89.07;99338.56;5111099;28;20028;-83
2022/06/26 04:56:38;;;;;;;12.27;6.88;;;;;;;20.61;88.18;99327.63;5092301;28;20390;-83
2022/06/26 04:59:05;;;;;;;12.38;6.93;;;;;;;20.59;88.62;99330.06;5093196;28;20452;-83
2022/06/26 05:01:30;;;;;;;12.20;7.53;;;;;;;20.53;89.90;99326.03;5111063;28;20058;-83
2022/06/26 05:03:56;;;;;;;10.50;6.82;;;;;;;20.51;89.83;99334.13;5092839;28;20110;-83
2022/06/26 05:06:22;;;;;;;13.23;7.53;;;;;;;20.19;91.08;99337.78;5111998;28;20111;-82
2022/06/26 05:08:48;;;;;;;16.05;8.27;;;;;;;20.16;90.18;99335.78;5112030;28;20042;-84
2022/06/26 05:11:13;;;;;;;16.08;8.52;;;;;;;20.18;92.16;99344.69;5110900;28;20038;-83
2022/06/26 05:13:39;;;;;;;11.30;7.30;;;;;;;20.28;91.29;99343.88;5113497;28;20024;-83
2022/06/26 05:16:05;;;;;;;15.95;7.50;;;;;;;20.22;90.15;99345.50;5115791;28;20153;-84
2022/06/26 05:18:31;;;;;;;16.60;7.55;;;;;;;20.28;90.32;99354.44;5116081;28;20034;-84
2022/06/26 05:20:56;;;;;;;15.68;7.93;;;;;;;20.32;90.78;99353.22;5096635;28;20409;-83
2022/06/26 05:23:22;;;;;;;11.70;6.68;;;;;;;20.10;88.99;99349.56;5097438;28;20031;-83
2022/06/26 05:25:47;;;;;;;10.88;7.57;;;;;;;20.04;90.66;99354.00;5115260;28;20023;-83
2022/06/26 05:28:13;;;;;;;15.40;11.07;;;;;;;19.94;91.16;99352.75;5115848;28;20015;-83
2022/06/26 05:30:39;;;;;;;22.42;13.45;;;;;;;20.01;91.03;99349.13;5115754;28;20069;-83
2022/06/26 05:33:04;;;;;;;27.52;16.40;;;;;;;20.05;90.64;99359.28;5095626;28;20061;-82
2022/06/26 05:35:31;;;;;;;27.38;16.05;;;;;;;20.28;91.06;99360.09;5091604;28;20203;-82
2022/06/26 05:37:56;;;;;;;16.27;10.40;;;;;;;20.36;91.48;99366.59;5113484;28;20039;-82
2022/06/26 05:40:22;;;;;;;12.48;7.22;;;;;;;20.38;90.48;99367.00;5109944;28;20092;-78
2022/06/26 05:42:48;;;;;;;14.70;8.20;;;;;;;20.44;91.19;99368.22;5095623;28;20019;-83
2022/06/26 05:48:35;;;;;;;11.88;8.13;;;;;;;20.23;89.51;99381.19;5110953;28;20402;-80
2022/06/26 05:51:00;;;;;;;17.08;8.60;;;;;;;20.34;89.88;99376.34;5111485;28;20027;-82
2022/06/26 05:53:26;;;;;;;10.02;8.00;;;;;;;20.31;89.63;99376.31;5095641;28;20507;-78
2022/06/26 05:55:51;;;;;;;20.17;10.70;;;;;;;20.48;91.47;99386.91;5112744;28;20416;-82
2022/06/26 05:58:17;;;;;;;15.82;9.38;;;;;;;20.48;89.14;99386.91;5115573;28;20032;-73
2022/06/26 06:00:42;;;;;;;18.23;12.02;;;;;;;20.48;88.87;99384.06;5113902;28;20103;-74
2022/06/26 06:03:08;;;;;;;11.63;8.93;;;;;;;20.48;89.27;99383.25;5114885;28;20104;-79
2022/06/26 06:05:34;;;;;;;14.30;8.02;;;;;;;20.66;89.27;99405.19;5096631;28;20031;-79
2022/06/26 06:08:00;;;;;;;13.60;7.90;;;;;;;20.57;89.86;99399.88;5114648;28;20028;-77
2022/06/26 06:10:26;;;;;;;11.77;8.13;;;;;;;20.56;88.61;99404.75;5113966;28;20399;-75
2022/06/26 06:12:52;;;;;;;17.88;9.20;;;;;;;20.68;89.82;99397.84;5114756;28;20069;-77
2022/06/26 06:15:19;;;;;;;14.38;8.90;;;;;;;21.01;89.90;99412.09;5115044;28;20474;-77
2022/06/26 06:17:45;;;;;;;12.85;9.48;;;;;;;21.23;87.96;99410.00;5114814;28;20041;-79
2022/06/26 06:20:18;;;;;;;16.15;9.18;;;;;;;21.28;87.62;99417.31;5114068;28;20032;-76
2022/06/26 06:22:54;;;;;;;12.90;9.10;;;;;;;21.48;88.22;99416.84;5109165;28;20409;-80
2022/06/26 06:25:22;;;;;;;13.88;8.57;;;;;;;21.68;85.62;99417.22;5094094;28;20130;-78
2022/06/26 06:27:48;;;;;;;13.55;8.63;;;;;;;21.60;84.06;99419.25;5114127;28;20473;-83
2022/06/26 06:30:15;;;;;;;17.20;8.63;;;;;;;21.73;87.09;99423.31;5095672;28;20027;-84
2022/06/26 06:32:41;;;;;;;16.45;9.35;;;;;;;21.69;85.74;99422.50;5115929;28;20676;-85
2022/06/26 06:35:08;;;;;;;18.05;10.20;;;;;;;21.66;87.36;99414.78;5095844;28;20069;-85
2022/06/26 06:37:34;;;;;;;12.05;8.23;;;;;;;21.80;84.52;99413.91;5114194;28;20057;-84
2022/06/26 06:40:00;;;;;;;11.27;7.35;;;;;;;21.92;82.32;99409.78;5113909;28;20020;-82
2022/06/26 06:42:25;;;;;;;9.43;7.00;;;;;;;21.79;83.12;99402.94;5114380;28;20481;-82
2022/06/26 06:44:51;;;;;;;21.63;6.47;;;;;;;21.64;82.34;99408.66;5111884;28;20393;-81
2022/06/26 06:47:17;;;;;;;14.30;6.70;;;;;;;21.58;79.41;99416.81;5111079;28;20050;-82
2022/06/26 06:49:42;;;;;;;13.80;7.50;;;;;;;21.59;79.53;99406.22;5108839;28;20024;-82
2022/06/26 06:52:08;;;;;;;13.15;5.93;;;;;;;21.65;80.30;99410.28;5108868;28;20032;-82
2022/06/26 06:54:33;;;;;;;9.27;6.43;;;;;;;21.61;80.43;99406.66;5110800;28;20214;-81
2022/06/26 06:56:59;;;;;;;12.50;5.95;;;;;;;21.74;80.34;99409.88;5104196;28;20023;-81
2022/06/26 06:59:25;;;;;;;17.95;5.82;;;;;;;21.80;79.35;99411.06;5113368;28;20063;-82
2022/06/26 07:01:50;;;;;;;11.85;5.65;;;;;;;21.80;78.20;99410.25;5112051;28;20039;-77
2022/06/26 07:04:16;;;;;;;9.68;5.70;;;;;;;21.87;78.10;99416.72;5100726;28;20070;-78
2022/06/26 07:06:42;;;;;;;14.75;6.47;;;;;;;21.86;78.24;99420.00;5092929;28;20439;-78
2022/06/26 07:09:07;;;;;;;15.15;5.93;;;;;;;22.08;77.30;99419.88;5097485;28;20031;-78
2022/06/26 07:11:33;;;;;;;16.45;6.88;;;;;;;22.16;78.41;99410.88;5094490;28;20103;-82
2022/06/26 07:13:58;;;;;;;13.55;6.25;;;;;;;22.33;76.00;99410.38;5095034;28;20032;-78
2022/06/26 07:16:24;;;;;;;10.65;6.32;;;;;;;22.55;75.50;99413.91;5109325;28;20165;-78
2022/06/26 07:18:50;;;;;;;14.68;5.55;;;;;;;22.85;74.27;99406.72;5107762;28;20026;-78
2022/06/26 07:21:15;;;;;;;8.75;5.45;;;;;;;23.04;73.76;99411.03;5093209;28;20548;-78
2022/06/26 07:23:41;;;;;;;11.98;6.22;;;;;;;23.24;75.88;99408.41;5092220;28;20020;-82
2022/06/26 07:26:07;;;;;;;19.70;6.00;;;;;;;23.41;71.55;99400.91;5112077;28;20050;-78
2022/06/26 07:28:32;;;;;;;18.15;5.60;;;;;;;23.45;69.69;99405.75;5112143;28;20023;-81
2022/06/26 07:30:58;;;;;;;8.60;5.28;;;;;;;23.50;70.87;99402.44;5111902;28;20034;-77
2022/06/26 07:36:08;;;;;;;10.18;5.00;;;;;;;24.14;68.98;99393.47;5107268;28;20100;-77
2022/06/26 07:38:33;;;;;;;11.82;5.47;;;;;;;24.33;67.81;99389.94;5089068;28;20023;-81
2022/06/26 07:40:59;;;;;;;9.75;4.82;;;;;;;24.56;67.25;99396.09;5096487;28;20084;-81
2022/06/26 07:43:25;;;;;;;8.20;4.57;;;;;;;24.76;66.05;99393.31;5091373;28;20055;-82
2022/06/26 07:45:50;;;;;;;10.00;4.30;;;;;;;24.65;65.17;99405.75;5091694;28;20386;-81
2022/06/26 07:48:16;;;;;;;15.10;4.63;;;;;;;24.64;65.52;99392.69;5091450;28;20431;-77
2022/06/26 07:50:42;;;;;;;8.30;4.00;;;;;;;24.76;64.47;99402.72;5103422;28;20023;-79
2022/06/26 07:53:07;;;;;;;9.10;4.15;;;;;;;24.72;63.10;99393.38;5090047;28;20027;-81
2022/06/26 07:55:33;;;;;;;9.23;4.15;;;;;;;24.64;63.07;99398.41;5084626;28;20028;-80
2022/06/26 07:57:59;;;;;;;9.70;4.20;;;;;;;24.55;61.59;99403.88;5073911;28;20035;-80
2022/06/26 08:00:25;;;;;;;5.90;4.18;;;;;;;24.57;62.25;99403.44;5101847;28;20023;-78
2022/06/26 08:02:51;;;;;;;5.45;3.88;;;;;;;24.60;62.40;99397.66;5112762;28;20041;-82
2022/06/26 08:05:16;;;;;;;8.23;4.78;;;;;;;24.67;64.05;99397.53;5112678;28;20027;-81
2022/06/26 08:07:42;;;;;;;8.10;4.38;;;;;;;24.86;62.57;99405.84;5094592;28;20045;-79
2022/06/26 08:10:08;;;;;;;11.43;4.97;;;;;;;24.95;62.54;99406.09;5112148;28;20023;-81
2022/06/26 08:12:33;;;;;;;9.82;4.85;;;;;;;24.99;62.95;99403.19;5112713;28;20106;-80
2022/06/26 08:14:59;;;;;;;7.45;4.28;;;;;;;25.09;61.89;99397.25;5112783;28;20145;-80
2022/06/26 08:17:24;;;;;;;13.30;5.85;;;;;;;24.90;62.09;99398.81;5112468;28;20042;-75
2022/06/26 08:19:50;;;;;;;15.77;4.82;;;;;;;24.89;61.87;99410.72;5089615;28;20086;-76
2022/06/26 08:22:15;;;;;;;17.23;4.72;;;;;;;24.83;61.17;99421.84;5106557;28;20036;-75
2022/06/26 08:24:43;;;;;;;22.90;5.38;;;;;;;24.57;63.97;99414.88;5097906;28;20028;-78
2022/06/26 08:27:10;;;;;;;17.40;5.40;;;;;;;24.70;63.80;99413.03;5073891;28;20028;-78
2022/06/26 08:29:36;;;;;;;10.38;4.15;;;;;;;24.53;60.65;99415.75;5094070;28;20019;-74
2022/06/26 08:32:02;;;;;;;26.17;8.05;;;;;;;24.27;60.02;99416.56;5112136;28;20051;-74
2022/06/26 08:34:27;;;;;;;6.45;3.33;;;;;;;24.37;59.79;99415.56;5111919;28;20058;-77
2022/06/26 08:36:54;;;;;;;7.75;3.80;;;;;;;24.56;61.16;99405.50;5093772;28;20055;-74
2022/06/26 08:39:20;;;;;;;7.30;3.88;;;;;;;24.58;60.03;99414.47;5111803;28;20023;-75
2022/06/26 08:41:47;;;;;;;6.88;3.97;;;;;;;24.39;60.95;99422.47;5093836;28;20462;-75
2022/06/26 08:44:13;;;;;;;5.50;2.58;;;;;;;24.78;57.74;99420.28;5110714;28;20469;-74
2022/06/26 08:46:41;;;;;;;7.35;3.95;;;;;;;25.03;57.32;99409.63;5094302;28;20029;-76
2022/06/26 08:49:19;;;;;;;5.13;3.38;;;;;;;25.37;57.78;99412.28;5091707;28;20035;-79
2022/06/26 08:51:46;;;;;;;7.13;3.53;;;;;;;25.62;53.97;99405.28;5111936;28;20072;-78
2022/06/26 08:54:13;;;;;;;6.47;3.55;;;;;;;25.98;55.32;99402.91;5094036;28;20043;-78
2022/06/26 08:56:49;;;;;;;7.82;3.45;;;;;;;25.99;55.43;99404.50;5092280;28;20345;-80
2022/06/26 08:59:17;;;;;;;7.53;4.00;;;;;;;25.73;52.50;99393.56;5110459;28;20022;-78
2022/06/26 09:01:44;;;;;;;7.68;3.42;;;;;;;25.97;55.63;99390.63;5111824;28;20055;-79
2022/06/26 09:04:10;;;;;;;7.95;3.72;;;;;;;25.48;54.52;99409.19;5090843;28;20485;-79
2022/06/26 09:06:37;;;;;;;6.03;2.97;;;;;;;25.41;54.84;99405.66;5073394;28;20100;-80
2022/06/26 09:09:23;;;;;;;4.07;3.42;;;;;;;25.64;54.61;99405.63;5106045;28;20020;-79
2022/06/26 09:11:52;;;;;;;9.85;4.82;;;;;;;25.24;56.31;99400.66;5111437;28;20124;-81
2022/06/26 09:14:18;;;;;;;9.15;4.13;;;;;;;25.61;57.10;99406.53;5089441;28;20385;-80
2022/06/26 09:16:45;;;;;;;6.60;4.03;;;;;;;25.99;58.18;99402.44;5072891;28;20028;-80
2022/06/26 09:19:20;;;;;;;7.60;4.38;;;;;;;26.05;55.71;99394.94;5091223;28;20031;-81
2022/06/26 09:21:47;;;;;;;5.03;3.80;;;;;;;26.26;54.00;99395.75;5073294;28;20474;-80
2022/06/26 09:24:19;;;;;;;117.93;16.08;;;;;;;26.68;58.20;99389.41;5072905;28;20020;-80
2022/06/26 09:26:45;;;;;;;7.75;4.32;;;;;;;27.10;54.68;99399.44;5090054;28;20020;-79
2022/06/26 09:29:14;;;;;;;10.27;6.30;;;;;;;26.56;53.38;99399.53;5072544;28;20032;-79
2022/06/26 09:31:40;;;;;;;6.63;4.50;;;;;;;26.83;53.11;99389.03;5109375;28;20023;-79
2022/06/26 09:34:07;;;;;;;8.88;3.55;;;;;;;26.29;53.09;99388.28;5111332;28;20504;-79
2022/06/26 09:36:33;;;;;;;10.23;5.45;;;;;;;26.28;53.79;99396.09;5110849;28;20054;-80
2022/06/26 09:38:59;;;;;;;11.07;4.30;;;;;;;25.87;51.44;99383.88;5110048;28;20517;-78
2022/06/26 09:41:33;;;;;;;10.88;4.90;;;;;;;26.21;53.02;99394.19;5094370;28;20024;-80
2022/06/26 09:43:59;;;;;;;12.10;4.60;;;;;;;26.53;52.59;99383.22;5072776;28;20024;-81
2022/06/26 09:46:32;;;;;;;29.70;7.13;;;;;;;27.11;53.27;99390.38;5105144;28;20023;-82
2022/06/26 09:49:00;;;;;;;10.27;6.47;;;;;;;26.69;50.98;99395.94;5092120;28;20024;-82
2022/06/26 09:51:26;;;;;;;6.80;3.80;;;;;;;26.45;52.18;99382.59;5092862;28;20104;-81
2022/06/26 09:53:54;;;;;;;4.60;3.80;;;;;;;26.77;52.67;99389.56;5109775;28;20034;-82
2022/06/26 09:56:20;;;;;;;19.13;5.00;;;;;;;27.01;52.50;99386.50;5110928;28;20030;-80
2022/06/26 09:58:46;;;;;;;9.60;4.07;;;;;;;27.08;50.46;99381.84;5108988;28;20080;-81
2022/06/26 10:06:46;;;;;;;11.57;7.18;;;;;;;26.64;52.40;99382.94;5114709;28;20027;-81
2022/06/26 10:09:13;;;;;;;12.60;4.53;;;;;;;26.59;53.54;99380.63;5092730;28;20027;-83
2022/06/26 10:11:42;;;;;;;22.10;5.25;;;;;;;26.96;52.29;99386.25;5084957;28;20039;-81
2022/06/26 10:14:17;;;;;;;42.55;7.65;;;;;;;27.37;52.01;99372.44;5096144;28;20028;-81
2022/06/26 10:17:00;;;;;;;10.85;4.88;;;;;;;27.54;51.10;99388.41;5114969;28;20031;-81
2022/06/26 10:19:45;;;;;;;19.63;4.85;;;;;;;27.57;51.48;99370.25;5092585;28;20486;-81
2022/06/26 10:22:15;;;;;;;20.42;8.68;;;;;;;27.75;51.05;99369.72;5088428;28;20022;-81
2022/06/26 10:24:52;;;;;;;17.65;5.40;;;;;;;27.77;48.62;99366.41;5095932;28;20030;-81
2022/06/26 10:27:23;;;;;;;39.30;8.70;;;;;;;27.85;49.95;99369.84;5114186;28;20038;-82
2022/06/26 10:29:49;;;;;;;5.35;3.50;;;;;;;27.19;46.17;99363.06;5095839;28;20035;-81
2022/06/26 10:32:22;;;;;;;5.35;3.55;;;;;;;26.72;48.46;99372.91;5095666;28;20032;-81
2022/06/26 10:34:57;;;;;;;17.30;9.82;;;;;;;27.31;48.76;99364.38;5113152;28;20051;-81
2022/06/26 10:37:23;;;;;;;6.50;4.47;;;;;;;27.64;46.72;99365.56;5095859;28;20108;-81
2022/06/26 10:39:52;;;;;;;6.40;3.50;;;;;;;27.80;47.13;99364.66;5095789;28;20111;-81
2022/06/26 10:45:18;;;;;;;4.57;3.00;;;;;;;27.93;46.94;99358.94;5114010;28;20060;-81
2022/06/26 10:47:55;;;;;;;37.40;8.27;;;;;;;27.84;46.06;99340.31;5095575;28;20386;-82
2022/06/26 10:50:47;;;;;;;86.00;11.95;;;;;;;28.11;47.02;99358.38;5095571;28;20088;-81
2022/06/26 10:53:23;;;;;;;7.30;3.83;;;;;;;28.10;44.01;99351.81;5084809;28;20552;-81
2022/06/26 10:56:03;;;;;;;38.20;5.50;;;;;;;27.91;42.39;99332.72;5113416;28;20069;-82
2022/06/26 10:58:35;;;;;;;10.43;3.30;;;;;;;28.22;44.80;99347.38;5095387;28;20047;-81
2022/06/26 11:01:04;;;;;;;4.68;3.22;;;;;;;28.17;41.66;99345.88;5113161;28;20023;-82
2022/06/26 11:03:30;;;;;;;6.57;3.17;;;;;;;28.11;43.05;99341.13;5113554;28;20030;-81
2022/06/26 11:06:04;;;;;;;12.45;4.43;;;;;;;28.30;43.29;99347.94;5095232;28;20035;-78
2022/06/26 11:08:32;;;;;;;10.40;2.80;;;;;;;28.26;42.75;99330.00;5113965;28;20071;-80
2022/06/26 11:11:06;;;;;;;4.32;3.22;;;;;;;28.30;42.06;99330.69;5113590;28;20515;-80
2022/06/26 11:13:34;;;;;;;4.10;3.17;;;;;;;28.50;43.43;99335.38;5113762;28;20114;-80
2022/06/26 11:16:00;;;;;;;4.38;2.60;;;;;;;28.25;39.33;99328.41;5112741;28;20024;-80
2022/06/26 11:18:33;;;;;;;4.68;2.83;;;;;;;28.32;40.74;99342.53;5094852;28;20023;-80
2022/06/26 11:21:01;;;;;;;6.10;3.10;;;;;;;28.41;41.49;99328.25;5095475;28;20077;-80
2022/06/26 11:23:28;;;;;;;5.03;2.75;;;;;;;28.39;40.80;99332.84;5113109;28;20402;-80
2022/06/26 11:26:08;;;;;;;6.93;2.92;;;;;;;28.61;40.00;99329.25;5094670;28;20032;-80
2022/06/26 11:28:42;;;;;;;5.00;2.90;;;;;;;28.73;40.91;99331.31;5095186;28;20039;-80
2022/06/26 11:31:11;;;;;;;6.80;3.10;;;;;;;28.80;41.17;99327.38;5094985;28;20114;-79
2022/06/26 11:33:39;;;;;;;4.45;3.30;;;;;;;28.68;44.07;99329.81;5095187;28;20122;-79
2022/06/26 11:36:22;;;;;;;3.08;2.70;;;;;;;28.75;41.46;99323.00;5111216;28;20108;-78
2022/06/26 11:38:54;;;;;;;129.10;12.82;;;;;;;28.69;42.05;99319.13;5093766;28;20488;-78
2022/06/26 11:41:22;;;;;;;57.35;7.47;;;;;;;28.81;41.88;99317.47;5095092;28;20019;-79
2022/06/26 11:43:51;;;;;;;13.75;3.40;;;;;;;29.05;41.81;99322.81;5108435;28;20032;-79
2022/06/26 11:46:17;;;;;;;6.60;3.05;;;;;;;28.75;41.35;99317.25;5095037;28;20020;-79